sensor_id;sensor_type;location;lat;lon;timestamp;P1;durP1;ratioP1;P2;durP2;ratioP2
18274;SDS011;19470;49.322;7.218;2024-02-14T00:32:45;3.58;;;2.03;;
18274;SDS011;19470;49.322;7.218;2024-02-14T00:35:12;6.13;;;2.55;;
18274;SDS011;19470;49.322;7.218;2024-02-14T00:37:38;6.45;;;2.10;;
18274;SDS011;19470;49.322;7.218;2024-02-14T00:41:08;2.95;;;2.20;;
18274;SDS011;19470;49.322;7.218;2024-02-14T00:47:01;7.55;;;2.53;;
18274;SDS011;19470;49.322;7.218;2024-02-14T00:49:29;4.28;;;1.90;;
18274;SDS011;19470;49.322;7.218;2024-02-14T00:51:56;5.35;;;2.05;;
18274;SDS011;19470;49.322;7.218;2024-02-14T00:54:23;3.25;;;1.90;;
18274;SDS011;19470;49.322;7.218;2024-02-14T00:56:50;5.85;;;2.63;;
18274;SDS011;19470;49.322;7.218;2024-02-14T01:06:14;6.43;;;2.40;;
18274;SDS011;19470;49.322;7.218;2024-02-14T01:08:41;5.15;;;2.35;;
18274;SDS011;19470;49.322;7.218;2024-02-14T01:11:07;5.15;;;2.38;;
18274;SDS011;19470;49.322;7.218;2024-02-14T01:13:42;7.65;;;2.15;;
18274;SDS011;19470;49.322;7.218;2024-02-14T01:20:22;4.15;;;1.85;;
18274;SDS011;19470;49.322;7.218;2024-02-14T01:22:50;7.47;;;2.30;;
18274;SDS011;19470;49.322;7.218;2024-02-14T01:25:17;4.25;;;2.28;;
18274;SDS011;19470;49.322;7.218;2024-02-14T01:27:44;4.47;;;2.45;;
18274;SDS011;19470;49.322;7.218;2024-02-14T01:30:15;6.72;;;2.42;;
18274;SDS011;19470;49.322;7.218;2024-02-14T01:40:00;7.88;;;3.70;;
18274;SDS011;19470;49.322;7.218;2024-02-14T01:42:28;11.88;;;5.25;;
18274;SDS011;19470;49.322;7.218;2024-02-14T01:44:54;6.07;;;2.67;;
18274;SDS011;19470;49.322;7.218;2024-02-14T01:47:21;4.93;;;2.47;;
18274;SDS011;19470;49.322;7.218;2024-02-14T01:49:48;6.05;;;2.50;;
18274;SDS011;19470;49.322;7.218;2024-02-14T01:52:14;6.80;;;2.33;;
18274;SDS011;19470;49.322;7.218;2024-02-14T01:54:54;4.30;;;2.47;;
18274;SDS011;19470;49.322;7.218;2024-02-14T01:57:22;5.65;;;2.58;;
18274;SDS011;19470;49.322;7.218;2024-02-14T01:59:50;4.65;;;2.25;;
18274;SDS011;19470;49.322;7.218;2024-02-14T02:02:19;6.93;;;2.38;;
18274;SDS011;19470;49.322;7.218;2024-02-14T02:21:57;9.27;;;2.60;;
18274;SDS011;19470;49.322;7.218;2024-02-14T02:24:25;5.03;;;2.53;;
18274;SDS011;19470;49.322;7.218;2024-02-14T02:26:52;5.55;;;2.40;;
18274;SDS011;19470;49.322;7.218;2024-02-14T02:29:21;9.98;;;2.60;;
18274;SDS011;19470;49.322;7.218;2024-02-14T02:32:09;7.47;;;2.40;;
18274;SDS011;19470;49.322;7.218;2024-02-14T02:35:17;8.05;;;2.20;;
18274;SDS011;19470;49.322;7.218;2024-02-14T02:41:09;6.95;;;2.50;;
18274;SDS011;19470;49.322;7.218;2024-02-14T02:43:35;6.70;;;2.58;;
18274;SDS011;19470;49.322;7.218;2024-02-14T02:46:02;6.82;;;2.22;;
18274;SDS011;19470;49.322;7.218;2024-02-14T02:48:34;6.10;;;2.35;;
18274;SDS011;19470;49.322;7.218;2024-02-14T02:55:21;3.47;;;2.30;;
18274;SDS011;19470;49.322;7.218;2024-02-14T02:57:49;7.47;;;2.25;;
18274;SDS011;19470;49.322;7.218;2024-02-14T03:00:17;5.20;;;1.90;;
18274;SDS011;19470;49.322;7.218;2024-02-14T03:02:52;5.38;;;2.45;;
18274;SDS011;19470;49.322;7.218;2024-02-14T03:05:59;7.05;;;2.00;;
18274;SDS011;19470;49.322;7.218;2024-02-14T03:28:50;3.30;;;2.00;;
18274;SDS011;19470;49.322;7.218;2024-02-14T03:31:18;3.88;;;1.90;;
18274;SDS011;19470;49.322;7.218;2024-02-14T03:33:46;5.68;;;1.98;;
18274;SDS011;19470;49.322;7.218;2024-02-14T03:36:14;4.72;;;1.98;;
18274;SDS011;19470;49.322;7.218;2024-02-14T03:38:59;5.63;;;2.20;;
18274;SDS011;19470;49.322;7.218;2024-02-14T03:41:29;5.80;;;1.95;;
18274;SDS011;19470;49.322;7.218;2024-02-14T03:43:56;6.80;;;1.80;;
18274;SDS011;19470;49.322;7.218;2024-02-14T03:46:25;5.75;;;2.03;;
18274;SDS011;19470;49.322;7.218;2024-02-14T03:48:54;7.72;;;2.10;;
18274;SDS011;19470;49.322;7.218;2024-02-14T03:51:37;7.72;;;1.88;;
18274;SDS011;19470;49.322;7.218;2024-02-14T03:54:51;7.88;;;2.20;;
18274;SDS011;19470;49.322;7.218;2024-02-14T03:57:34;4.55;;;2.03;;
18274;SDS011;19470;49.322;7.218;2024-02-14T04:00:06;5.50;;;2.00;;
18274;SDS011;19470;49.322;7.218;2024-02-14T04:02:41;5.72;;;2.08;;
18274;SDS011;19470;49.322;7.218;2024-02-14T04:29:33;8.73;;;2.40;;
18274;SDS011;19470;49.322;7.218;2024-02-14T04:32:00;6.25;;;2.80;;
18274;SDS011;19470;49.322;7.218;2024-02-14T04:34:27;6.65;;;2.75;;
18274;SDS011;19470;49.322;7.218;2024-02-14T04:37:04;7.53;;;3.47;;
18274;SDS011;19470;49.322;7.218;2024-02-14T04:39:52;5.95;;;2.63;;
18274;SDS011;19470;49.322;7.218;2024-02-14T04:42:21;9.57;;;2.95;;
18274;SDS011;19470;49.322;7.218;2024-02-14T04:45:33;8.35;;;2.70;;
18274;SDS011;19470;49.322;7.218;2024-02-14T04:48:04;5.43;;;2.67;;
18274;SDS011;19470;49.322;7.218;2024-02-14T04:50:32;7.28;;;2.60;;
18274;SDS011;19470;49.322;7.218;2024-02-14T04:53:13;7.40;;;2.72;;
18274;SDS011;19470;49.322;7.218;2024-02-14T04:59:32;7.45;;;2.58;;
18274;SDS011;19470;49.322;7.218;2024-02-14T05:02:00;6.93;;;2.70;;
18274;SDS011;19470;49.322;7.218;2024-02-14T05:04:26;6.78;;;2.40;;
18274;SDS011;19470;49.322;7.218;2024-02-14T05:06:54;7.65;;;2.25;;
18274;SDS011;19470;49.322;7.218;2024-02-14T05:16:42;7.40;;;2.60;;
18274;SDS011;19470;49.322;7.218;2024-02-14T05:29:25;10.73;;;3.13;;
18274;SDS011;19470;49.322;7.218;2024-02-14T05:31:51;5.47;;;2.92;;
18274;SDS011;19470;49.322;7.218;2024-02-14T05:34:20;5.22;;;3.08;;
18274;SDS011;19470;49.322;7.218;2024-02-14T05:36:48;9.25;;;5.45;;
18274;SDS011;19470;49.322;7.218;2024-02-14T06:03:43;5.80;;;3.25;;
18274;SDS011;19470;49.322;7.218;2024-02-14T06:06:09;11.55;;;4.05;;
18274;SDS011;19470;49.322;7.218;2024-02-14T06:12:14;9.82;;;3.50;;
18274;SDS011;19470;49.322;7.218;2024-02-14T06:14:41;8.40;;;4.57;;
18274;SDS011;19470;49.322;7.218;2024-02-14T06:17:07;8.07;;;3.70;;
18274;SDS011;19470;49.322;7.218;2024-02-14T06:19:35;9.10;;;3.35;;
18274;SDS011;19470;49.322;7.218;2024-02-14T06:22:04;5.75;;;3.38;;
18274;SDS011;19470;49.322;7.218;2024-02-14T06:24:30;12.07;;;3.83;;
18274;SDS011;19470;49.322;7.218;2024-02-14T06:26:57;7.15;;;3.45;;
18274;SDS011;19470;49.322;7.218;2024-02-14T06:29:23;6.60;;;3.47;;
18274;SDS011;19470;49.322;7.218;2024-02-14T06:31:50;8.32;;;3.22;;
18274;SDS011;19470;49.322;7.218;2024-02-14T06:34:17;10.48;;;3.67;;
18274;SDS011;19470;49.322;7.218;2024-02-14T06:36:46;16.45;;;3.67;;
18274;SDS011;19470;49.322;7.218;2024-02-14T06:39:13;11.07;;;4.25;;
18274;SDS011;19470;49.322;7.218;2024-02-14T06:41:39;8.45;;;2.97;;
18274;SDS011;19470;49.322;7.218;2024-02-14T06:44:06;8.20;;;3.33;;
18274;SDS011;19470;49.322;7.218;2024-02-14T06:46:33;9.00;;;3.70;;
18274;SDS011;19470;49.322;7.218;2024-02-14T06:49:01;7.15;;;3.50;;
18274;SDS011;19470;49.322;7.218;2024-02-14T06:51:28;14.02;;;3.58;;
18274;SDS011;19470;49.322;7.218;2024-02-14T06:53:56;6.60;;;3.30;;
18274;SDS011;19470;49.322;7.218;2024-02-14T06:56:23;6.30;;;3.50;;
18274;SDS011;19470;49.322;7.218;2024-02-14T06:58:49;11.02;;;4.03;;
18274;SDS011;19470;49.322;7.218;2024-02-14T07:01:18;11.75;;;3.63;;
18274;SDS011;19470;49.322;7.218;2024-02-14T07:03:47;12.82;;;3.67;;
18274;SDS011;19470;49.322;7.218;2024-02-14T07:06:13;8.95;;;3.50;;
18274;SDS011;19470;49.322;7.218;2024-02-14T07:08:40;12.85;;;4.85;;
18274;SDS011;19470;49.322;7.218;2024-02-14T07:11:08;13.65;;;3.67;;
18274;SDS011;19470;49.322;7.218;2024-02-14T07:13:34;6.93;;;3.58;;
18274;SDS011;19470;49.322;7.218;2024-02-14T07:16:01;12.45;;;5.10;;
18274;SDS011;19470;49.322;7.218;2024-02-14T07:18:27;13.77;;;3.88;;
18274;SDS011;19470;49.322;7.218;2024-02-14T07:20:54;5.60;;;3.55;;
18274;SDS011;19470;49.322;7.218;2024-02-14T07:23:20;13.75;;;3.83;;
18274;SDS011;19470;49.322;7.218;2024-02-14T07:25:47;9.27;;;4.00;;
18274;SDS011;19470;49.322;7.218;2024-02-14T07:28:15;10.55;;;4.00;;
18274;SDS011;19470;49.322;7.218;2024-02-14T07:30:42;8.60;;;4.22;;
18274;SDS011;19470;49.322;7.218;2024-02-14T07:33:09;10.02;;;4.18;;
18274;SDS011;19470;49.322;7.218;2024-02-14T07:35:38;7.65;;;3.75;;
18274;SDS011;19470;49.322;7.218;2024-02-14T07:38:05;12.45;;;3.95;;
18274;SDS011;19470;49.322;7.218;2024-02-14T07:40:32;11.60;;;4.00;;
18274;SDS011;19470;49.322;7.218;2024-02-14T07:42:58;6.50;;;3.80;;
18274;SDS011;19470;49.322;7.218;2024-02-14T07:45:27;8.60;;;3.90;;
18274;SDS011;19470;49.322;7.218;2024-02-14T07:47:53;16.27;;;4.82;;
18274;SDS011;19470;49.322;7.218;2024-02-14T07:50:20;8.52;;;3.67;;
18274;SDS011;19470;49.322;7.218;2024-02-14T07:52:47;19.90;;;11.68;;
18274;SDS011;19470;49.322;7.218;2024-02-14T07:55:13;9.77;;;4.13;;
18274;SDS011;19470;49.322;7.218;2024-02-14T07:57:40;7.40;;;3.63;;
18274;SDS011;19470;49.322;7.218;2024-02-14T08:00:08;9.43;;;3.17;;
18274;SDS011;19470;49.322;7.218;2024-02-14T08:02:37;7.72;;;3.67;;
18274;SDS011;19470;49.322;7.218;2024-02-14T08:05:03;8.55;;;3.47;;
18274;SDS011;19470;49.322;7.218;2024-02-14T08:07:31;9.20;;;3.85;;
18274;SDS011;19470;49.322;7.218;2024-02-14T08:09:57;9.80;;;3.72;;
18274;SDS011;19470;49.322;7.218;2024-02-14T08:12:24;6.88;;;3.42;;
18274;SDS011;19470;49.322;7.218;2024-02-14T08:14:52;8.93;;;4.38;;
18274;SDS011;19470;49.322;7.218;2024-02-14T08:17:18;7.97;;;3.97;;
18274;SDS011;19470;49.322;7.218;2024-02-14T08:19:46;9.20;;;4.85;;
18274;SDS011;19470;49.322;7.218;2024-02-14T08:22:15;6.97;;;4.30;;
18274;SDS011;19470;49.322;7.218;2024-02-14T08:24:41;6.20;;;4.32;;
18274;SDS011;19470;49.322;7.218;2024-02-14T08:27:08;9.43;;;4.78;;
18274;SDS011;19470;49.322;7.218;2024-02-14T08:29:34;8.00;;;3.80;;
18274;SDS011;19470;49.322;7.218;2024-02-14T08:32:01;11.82;;;4.60;;
18274;SDS011;19470;49.322;7.218;2024-02-14T08:34:28;7.47;;;4.60;;
18274;SDS011;19470;49.322;7.218;2024-02-14T08:36:56;7.75;;;4.30;;
18274;SDS011;19470;49.322;7.218;2024-02-14T08:39:23;10.38;;;3.88;;
18274;SDS011;19470;49.322;7.218;2024-02-14T08:41:49;7.30;;;4.10;;
18274;SDS011;19470;49.322;7.218;2024-02-14T08:44:16;7.13;;;4.15;;
18274;SDS011;19470;49.322;7.218;2024-02-14T08:46:45;15.73;;;8.48;;
18274;SDS011;19470;49.322;7.218;2024-02-14T08:49:13;12.18;;;7.25;;
18274;SDS011;19470;49.322;7.218;2024-02-14T08:51:40;10.50;;;3.60;;
18274;SDS011;19470;49.322;7.218;2024-02-14T08:54:09;8.57;;;3.70;;
18274;SDS011;19470;49.322;7.218;2024-02-14T08:56:37;6.88;;;4.15;;
18274;SDS011;19470;49.322;7.218;2024-02-14T08:59:05;7.68;;;3.83;;
18274;SDS011;19470;49.322;7.218;2024-02-14T09:01:32;9.23;;;4.32;;
18274;SDS011;19470;49.322;7.218;2024-02-14T09:03:59;5.78;;;4.18;;
18274;SDS011;19470;49.322;7.218;2024-02-14T09:06:25;8.10;;;4.28;;
18274;SDS011;19470;49.322;7.218;2024-02-14T09:08:52;8.65;;;3.92;;
18274;SDS011;19470;49.322;7.218;2024-02-14T09:11:21;8.82;;;4.40;;
18274;SDS011;19470;49.322;7.218;2024-02-14T09:13:48;10.05;;;4.45;;
18274;SDS011;19470;49.322;7.218;2024-02-14T09:16:18;6.93;;;4.20;;
18274;SDS011;19470;49.322;7.218;2024-02-14T09:18:47;8.30;;;4.53;;
18274;SDS011;19470;49.322;7.218;2024-02-14T09:21:13;9.32;;;4.63;;
18274;SDS011;19470;49.322;7.218;2024-02-14T09:23:40;9.98;;;4.47;;
18274;SDS011;19470;49.322;7.218;2024-02-14T09:26:07;21.50;;;10.48;;
18274;SDS011;19470;49.322;7.218;2024-02-14T09:28:34;10.82;;;5.13;;
18274;SDS011;19470;49.322;7.218;2024-02-14T09:31:01;8.43;;;4.40;;
18274;SDS011;19470;49.322;7.218;2024-02-14T09:33:29;11.57;;;4.85;;
18274;SDS011;19470;49.322;7.218;2024-02-14T09:35:55;8.85;;;4.35;;
18274;SDS011;19470;49.322;7.218;2024-02-14T09:38:22;7.32;;;4.22;;
18274;SDS011;19470;49.322;7.218;2024-02-14T09:43:21;8.30;;;4.45;;
18274;SDS011;19470;49.322;7.218;2024-02-14T09:45:55;9.63;;;4.47;;
18274;SDS011;19470;49.322;7.218;2024-02-14T09:48:22;9.90;;;4.57;;
18274;SDS011;19470;49.322;7.218;2024-02-14T09:50:49;10.18;;;5.20;;
18274;SDS011;19470;49.322;7.218;2024-02-14T09:53:18;10.38;;;5.00;;
18274;SDS011;19470;49.322;7.218;2024-02-14T09:55:46;7.57;;;4.28;;
18274;SDS011;19470;49.322;7.218;2024-02-14T09:58:12;7.55;;;3.97;;
18274;SDS011;19470;49.322;7.218;2024-02-14T10:00:39;6.72;;;4.82;;
18274;SDS011;19470;49.322;7.218;2024-02-14T10:03:08;7.93;;;4.32;;
18274;SDS011;19470;49.322;7.218;2024-02-14T10:05:34;8.30;;;4.30;;
18274;SDS011;19470;49.322;7.218;2024-02-14T10:08:01;12.23;;;4.55;;
18274;SDS011;19470;49.322;7.218;2024-02-14T10:10:28;8.15;;;4.05;;
18274;SDS011;19470;49.322;7.218;2024-02-14T10:12:55;14.27;;;5.10;;
18274;SDS011;19470;49.322;7.218;2024-02-14T10:15:22;7.85;;;4.85;;
18274;SDS011;19470;49.322;7.218;2024-02-14T10:17:48;7.57;;;5.00;;
18274;SDS011;19470;49.322;7.218;2024-02-14T10:20:17;9.23;;;4.93;;
18274;SDS011;19470;49.322;7.218;2024-02-14T10:22:44;10.77;;;4.88;;
18274;SDS011;19470;49.322;7.218;2024-02-14T10:25:11;10.38;;;4.65;;
18274;SDS011;19470;49.322;7.218;2024-02-14T10:27:39;7.47;;;4.82;;
18274;SDS011;19470;49.322;7.218;2024-02-14T10:30:07;10.38;;;5.03;;
18274;SDS011;19470;49.322;7.218;2024-02-14T10:32:35;7.82;;;4.50;;
18274;SDS011;19470;49.322;7.218;2024-02-14T10:35:03;7.78;;;5.03;;
18274;SDS011;19470;49.322;7.218;2024-02-14T10:37:32;8.23;;;4.60;;
18274;SDS011;19470;49.322;7.218;2024-02-14T10:39:58;7.22;;;4.70;;
18274;SDS011;19470;49.322;7.218;2024-02-14T10:42:28;9.90;;;4.75;;
18274;SDS011;19470;49.322;7.218;2024-02-14T10:44:54;14.25;;;6.43;;
18274;SDS011;19470;49.322;7.218;2024-02-14T10:47:21;14.27;;;7.43;;
18274;SDS011;19470;49.322;7.218;2024-02-14T10:49:52;12.48;;;5.00;;
18274;SDS011;19470;49.322;7.218;2024-02-14T10:52:20;6.72;;;4.40;;
18274;SDS011;19470;49.322;7.218;2024-02-14T10:54:51;9.18;;;5.07;;
18274;SDS011;19470;49.322;7.218;2024-02-14T10:57:22;8.45;;;5.05;;
18274;SDS011;19470;49.322;7.218;2024-02-14T10:59:50;7.68;;;4.25;;
18274;SDS011;19470;49.322;7.218;2024-02-14T11:02:19;9.93;;;5.13;;
18274;SDS011;19470;49.322;7.218;2024-02-14T11:04:47;7.70;;;4.60;;
18274;SDS011;19470;49.322;7.218;2024-02-14T11:07:18;9.75;;;4.90;;
18274;SDS011;19470;49.322;7.218;2024-02-14T11:09:48;6.57;;;4.65;;
18274;SDS011;19470;49.322;7.218;2024-02-14T11:12:31;11.30;;;5.30;;
18274;SDS011;19470;49.322;7.218;2024-02-14T11:14:59;9.95;;;4.60;;
18274;SDS011;19470;49.322;7.218;2024-02-14T11:17:26;6.22;;;4.80;;
18274;SDS011;19470;49.322;7.218;2024-02-14T11:19:53;9.52;;;4.82;;
18274;SDS011;19470;49.322;7.218;2024-02-14T11:22:19;7.65;;;4.30;;
18274;SDS011;19470;49.322;7.218;2024-02-14T11:24:46;13.68;;;6.18;;
18274;SDS011;19470;49.322;7.218;2024-02-14T11:27:17;7.35;;;4.35;;
18274;SDS011;19470;49.322;7.218;2024-02-14T11:29:53;7.45;;;4.28;;
18274;SDS011;19470;49.322;7.218;2024-02-14T11:32:21;9.25;;;4.85;;
18274;SDS011;19470;49.322;7.218;2024-02-14T11:34:55;10.90;;;6.32;;
18274;SDS011;19470;49.322;7.218;2024-02-14T11:37:27;8.57;;;4.25;;
18274;SDS011;19470;49.322;7.218;2024-02-14T11:39:53;7.63;;;3.78;;
18274;SDS011;19470;49.322;7.218;2024-02-14T11:42:21;9.80;;;3.95;;
18274;SDS011;19470;49.322;7.218;2024-02-14T11:44:48;7.03;;;3.88;;
18274;SDS011;19470;49.322;7.218;2024-02-14T11:47:16;5.07;;;3.58;;
18274;SDS011;19470;49.322;7.218;2024-02-14T11:49:42;6.07;;;3.90;;
18274;SDS011;19470;49.322;7.218;2024-02-14T11:52:09;5.03;;;3.42;;
18274;SDS011;19470;49.322;7.218;2024-02-14T11:54:36;5.38;;;3.70;;
18274;SDS011;19470;49.322;7.218;2024-02-14T11:57:03;5.65;;;3.75;;
18274;SDS011;19470;49.322;7.218;2024-02-14T11:59:29;6.93;;;3.88;;
18274;SDS011;19470;49.322;7.218;2024-02-14T12:01:56;4.60;;;3.33;;
18274;SDS011;19470;49.322;7.218;2024-02-14T12:04:24;3.92;;;3.40;;
18274;SDS011;19470;49.322;7.218;2024-02-14T12:06:51;4.43;;;3.20;;
18274;SDS011;19470;49.322;7.218;2024-02-14T12:09:18;6.25;;;2.88;;
18274;SDS011;19470;49.322;7.218;2024-02-14T12:11:44;5.65;;;3.47;;
18274;SDS011;19470;49.322;7.218;2024-02-14T12:14:12;4.63;;;2.88;;
18274;SDS011;19470;49.322;7.218;2024-02-14T12:16:39;3.65;;;2.80;;
18274;SDS011;19470;49.322;7.218;2024-02-14T12:19:06;4.75;;;2.97;;
18274;SDS011;19470;49.322;7.218;2024-02-14T12:21:36;3.80;;;2.75;;
18274;SDS011;19470;49.322;7.218;2024-02-14T12:24:04;3.60;;;2.70;;
18274;SDS011;19470;49.322;7.218;2024-02-14T12:26:32;3.13;;;2.47;;
18274;SDS011;19470;49.322;7.218;2024-02-14T12:29:00;4.70;;;3.35;;
18274;SDS011;19470;49.322;7.218;2024-02-14T12:31:28;13.23;;;4.38;;
18274;SDS011;19470;49.322;7.218;2024-02-14T12:33:55;6.22;;;3.60;;
18274;SDS011;19470;49.322;7.218;2024-02-14T12:36:24;4.93;;;3.80;;
18274;SDS011;19470;49.322;7.218;2024-02-14T12:38:52;6.40;;;3.50;;
18274;SDS011;19470;49.322;7.218;2024-02-14T12:41:18;5.63;;;4.28;;
18274;SDS011;19470;49.322;7.218;2024-02-14T12:43:45;6.70;;;4.70;;
18274;SDS011;19470;49.322;7.218;2024-02-14T12:46:13;6.22;;;4.45;;
18274;SDS011;19470;49.322;7.218;2024-02-14T12:48:40;7.38;;;4.78;;
18274;SDS011;19470;49.322;7.218;2024-02-14T12:51:06;6.53;;;4.43;;
18274;SDS011;19470;49.322;7.218;2024-02-14T12:53:33;7.35;;;4.65;;
18274;SDS011;19470;49.322;7.218;2024-02-14T12:56:01;5.70;;;4.18;;
18274;SDS011;19470;49.322;7.218;2024-02-14T12:58:29;6.63;;;4.20;;
18274;SDS011;19470;49.322;7.218;2024-02-14T13:00:56;8.52;;;4.28;;
18274;SDS011;19470;49.322;7.218;2024-02-14T13:03:23;5.38;;;4.18;;
18274;SDS011;19470;49.322;7.218;2024-02-14T13:05:50;8.73;;;4.07;;
18274;SDS011;19470;49.322;7.218;2024-02-14T13:08:19;4.93;;;4.03;;
18274;SDS011;19470;49.322;7.218;2024-02-14T13:10:45;6.30;;;4.50;;
18274;SDS011;19470;49.322;7.218;2024-02-14T13:13:13;7.25;;;4.47;;
18274;SDS011;19470;49.322;7.218;2024-02-14T13:15:40;9.38;;;5.75;;
18274;SDS011;19470;49.322;7.218;2024-02-14T13:18:08;7.72;;;4.88;;
18274;SDS011;19470;49.322;7.218;2024-02-14T13:20:34;7.95;;;4.82;;
18274;SDS011;19470;49.322;7.218;2024-02-14T13:23:02;4.75;;;3.83;;
18274;SDS011;19470;49.322;7.218;2024-02-14T13:25:29;7.40;;;4.82;;
18274;SDS011;19470;49.322;7.218;2024-02-14T13:27:54;7.60;;;4.57;;
18274;SDS011;19470;49.322;7.218;2024-02-14T13:30:24;7.38;;;4.40;;
18274;SDS011;19470;49.322;7.218;2024-02-14T13:32:50;6.47;;;4.32;;
18274;SDS011;19470;49.322;7.218;2024-02-14T13:35:17;6.70;;;4.47;;
18274;SDS011;19470;49.322;7.218;2024-02-14T13:37:43;5.95;;;4.25;;
18274;SDS011;19470;49.322;7.218;2024-02-14T13:40:11;6.32;;;4.50;;
18274;SDS011;19470;49.322;7.218;2024-02-14T13:42:38;7.32;;;4.43;;
18274;SDS011;19470;49.322;7.218;2024-02-14T13:45:05;4.97;;;4.28;;
18274;SDS011;19470;49.322;7.218;2024-02-14T13:47:36;5.75;;;3.90;;
18274;SDS011;19470;49.322;7.218;2024-02-14T13:50:04;5.22;;;3.92;;
18274;SDS011;19470;49.322;7.218;2024-02-14T13:52:31;6.57;;;4.13;;
18274;SDS011;19470;49.322;7.218;2024-02-14T13:54:58;4.53;;;3.42;;
18274;SDS011;19470;49.322;7.218;2024-02-14T13:57:24;4.10;;;3.70;;
18274;SDS011;19470;49.322;7.218;2024-02-14T13:59:51;5.75;;;4.22;;
18274;SDS011;19470;49.322;7.218;2024-02-14T14:02:19;5.32;;;4.10;;
18274;SDS011;19470;49.322;7.218;2024-02-14T14:04:47;4.75;;;3.90;;
18274;SDS011;19470;49.322;7.218;2024-02-14T14:07:14;6.93;;;4.30;;
18274;SDS011;19470;49.322;7.218;2024-02-14T14:09:40;6.20;;;3.97;;
18274;SDS011;19470;49.322;7.218;2024-02-14T14:12:07;4.70;;;3.72;;
18274;SDS011;19470;49.322;7.218;2024-02-14T14:14:34;4.25;;;3.63;;
18274;SDS011;19470;49.322;7.218;2024-02-14T14:17:00;5.80;;;3.78;;
18274;SDS011;19470;49.322;7.218;2024-02-14T14:19:27;4.82;;;4.00;;
18274;SDS011;19470;49.322;7.218;2024-02-14T14:21:55;6.40;;;4.00;;
18274;SDS011;19470;49.322;7.218;2024-02-14T14:24:22;5.63;;;3.97;;
18274;SDS011;19470;49.322;7.218;2024-02-14T14:26:50;5.18;;;4.15;;
18274;SDS011;19470;49.322;7.218;2024-02-14T14:29:17;4.97;;;3.83;;
18274;SDS011;19470;49.322;7.218;2024-02-14T14:31:44;5.22;;;3.58;;
18274;SDS011;19470;49.322;7.218;2024-02-14T14:34:10;4.85;;;4.03;;
18274;SDS011;19470;49.322;7.218;2024-02-14T14:36:37;8.13;;;4.47;;
18274;SDS011;19470;49.322;7.218;2024-02-14T14:39:07;4.20;;;3.80;;
18274;SDS011;19470;49.322;7.218;2024-02-14T14:41:36;4.88;;;3.50;;
18274;SDS011;19470;49.322;7.218;2024-02-14T14:44:02;4.10;;;3.67;;
18274;SDS011;19470;49.322;7.218;2024-02-14T14:46:29;4.35;;;3.80;;
18274;SDS011;19470;49.322;7.218;2024-02-14T14:48:56;7.65;;;4.15;;
18274;SDS011;19470;49.322;7.218;2024-02-14T14:51:23;6.80;;;4.20;;
18274;SDS011;19470;49.322;7.218;2024-02-14T14:53:49;4.50;;;4.00;;
18274;SDS011;19470;49.322;7.218;2024-02-14T14:56:17;4.53;;;3.92;;
18274;SDS011;19470;49.322;7.218;2024-02-14T14:58:44;5.22;;;4.50;;
18274;SDS011;19470;49.322;7.218;2024-02-14T15:01:11;5.05;;;4.55;;
18274;SDS011;19470;49.322;7.218;2024-02-14T15:03:38;5.50;;;4.60;;
18274;SDS011;19470;49.322;7.218;2024-02-14T15:06:05;6.10;;;4.85;;
18274;SDS011;19470;49.322;7.218;2024-02-14T15:08:32;5.15;;;4.40;;
18274;SDS011;19470;49.322;7.218;2024-02-14T15:10:58;5.38;;;4.65;;
18274;SDS011;19470;49.322;7.218;2024-02-14T15:13:26;6.82;;;4.20;;
18274;SDS011;19470;49.322;7.218;2024-02-14T15:15:53;5.75;;;4.22;;
18274;SDS011;19470;49.322;7.218;2024-02-14T15:18:19;5.32;;;4.22;;
18274;SDS011;19470;49.322;7.218;2024-02-14T15:20:46;4.53;;;4.10;;
18274;SDS011;19470;49.322;7.218;2024-02-14T15:23:13;5.38;;;4.55;;
18274;SDS011;19470;49.322;7.218;2024-02-14T15:25:39;5.13;;;4.40;;
18274;SDS011;19470;49.322;7.218;2024-02-14T15:28:06;5.90;;;4.88;;
18274;SDS011;19470;49.322;7.218;2024-02-14T15:30:40;5.78;;;4.38;;
18274;SDS011;19470;49.322;7.218;2024-02-14T15:33:24;7.43;;;4.93;;
18274;SDS011;19470;49.322;7.218;2024-02-14T15:35:51;8.30;;;4.85;;
18274;SDS011;19470;49.322;7.218;2024-02-14T15:38:18;8.02;;;4.93;;
18274;SDS011;19470;49.322;7.218;2024-02-14T15:40:45;9.73;;;5.13;;
18274;SDS011;19470;49.322;7.218;2024-02-14T15:43:12;8.25;;;4.55;;
18274;SDS011;19470;49.322;7.218;2024-02-14T15:45:41;9.38;;;5.30;;
18274;SDS011;19470;49.322;7.218;2024-02-14T15:48:08;4.93;;;4.43;;
18274;SDS011;19470;49.322;7.218;2024-02-14T15:50:35;7.88;;;5.35;;
18274;SDS011;19470;49.322;7.218;2024-02-14T15:53:02;8.85;;;5.38;;
18274;SDS011;19470;49.322;7.218;2024-02-14T15:55:29;9.88;;;5.15;;
18274;SDS011;19470;49.322;7.218;2024-02-14T15:57:56;8.50;;;5.30;;
18274;SDS011;19470;49.322;7.218;2024-02-14T16:00:23;10.15;;;5.57;;
18274;SDS011;19470;49.322;7.218;2024-02-14T16:02:53;6.70;;;4.82;;
18274;SDS011;19470;49.322;7.218;2024-02-14T16:05:19;7.03;;;5.00;;
18274;SDS011;19470;49.322;7.218;2024-02-14T16:07:46;7.30;;;4.72;;
18274;SDS011;19470;49.322;7.218;2024-02-14T16:10:13;7.50;;;4.90;;
18274;SDS011;19470;49.322;7.218;2024-02-14T16:12:41;10.50;;;7.55;;
18274;SDS011;19470;49.322;7.218;2024-02-14T16:15:09;10.07;;;5.95;;
18274;SDS011;19470;49.322;7.218;2024-02-14T16:17:36;8.73;;;5.15;;
18274;SDS011;19470;49.322;7.218;2024-02-14T16:20:06;7.65;;;4.97;;
18274;SDS011;19470;49.322;7.218;2024-02-14T16:22:33;5.45;;;4.68;;
18274;SDS011;19470;49.322;7.218;2024-02-14T16:25:00;6.88;;;4.93;;
18274;SDS011;19470;49.322;7.218;2024-02-14T16:27:26;7.90;;;5.35;;
18274;SDS011;19470;49.322;7.218;2024-02-14T16:29:53;7.32;;;4.72;;
18274;SDS011;19470;49.322;7.218;2024-02-14T16:32:19;6.88;;;5.63;;
18274;SDS011;19470;49.322;7.218;2024-02-14T16:34:46;7.03;;;5.20;;
18274;SDS011;19470;49.322;7.218;2024-02-14T16:37:15;6.72;;;4.93;;
18274;SDS011;19470;49.322;7.218;2024-02-14T16:39:44;6.93;;;5.50;;
18274;SDS011;19470;49.322;7.218;2024-02-14T16:42:11;8.25;;;5.57;;
18274;SDS011;19470;49.322;7.218;2024-02-14T16:44:38;6.60;;;5.20;;
18274;SDS011;19470;49.322;7.218;2024-02-14T16:47:04;9.52;;;5.75;;
18274;SDS011;19470;49.322;7.218;2024-02-14T16:49:31;9.93;;;5.88;;
18274;SDS011;19470;49.322;7.218;2024-02-14T16:51:58;7.65;;;4.70;;
18274;SDS011;19470;49.322;7.218;2024-02-14T16:54:26;8.70;;;6.13;;
18274;SDS011;19470;49.322;7.218;2024-02-14T16:56:53;10.23;;;5.50;;
18274;SDS011;19470;49.322;7.218;2024-02-14T16:59:24;11.52;;;5.30;;
18274;SDS011;19470;49.322;7.218;2024-02-14T17:01:51;8.20;;;5.78;;
18274;SDS011;19470;49.322;7.218;2024-02-14T17:04:18;9.18;;;5.70;;
18274;SDS011;19470;49.322;7.218;2024-02-14T17:06:44;11.23;;;5.65;;
18274;SDS011;19470;49.322;7.218;2024-02-14T17:09:11;9.73;;;5.10;;
18274;SDS011;19470;49.322;7.218;2024-02-14T17:11:39;6.07;;;5.35;;
18274;SDS011;19470;49.322;7.218;2024-02-14T17:14:06;7.45;;;5.50;;
18274;SDS011;19470;49.322;7.218;2024-02-14T17:16:33;12.20;;;5.95;;
18274;SDS011;19470;49.322;7.218;2024-02-14T17:19:00;6.32;;;4.85;;
18274;SDS011;19470;49.322;7.218;2024-02-14T17:21:27;9.82;;;5.15;;
18274;SDS011;19470;49.322;7.218;2024-02-14T17:23:53;9.00;;;5.57;;
18274;SDS011;19470;49.322;7.218;2024-02-14T17:26:20;8.93;;;5.38;;
18274;SDS011;19470;49.322;7.218;2024-02-14T17:28:48;10.07;;;5.13;;
18274;SDS011;19470;49.322;7.218;2024-02-14T17:31:14;7.97;;;5.53;;
18274;SDS011;19470;49.322;7.218;2024-02-14T17:33:41;6.15;;;4.43;;
18274;SDS011;19470;49.322;7.218;2024-02-14T17:36:08;8.00;;;4.32;;
18274;SDS011;19470;49.322;7.218;2024-02-14T17:38:34;6.88;;;4.53;;
18274;SDS011;19470;49.322;7.218;2024-02-14T17:41:01;7.18;;;4.40;;
18274;SDS011;19470;49.322;7.218;2024-02-14T17:43:28;7.55;;;5.45;;
18274;SDS011;19470;49.322;7.218;2024-02-14T17:45:55;8.32;;;4.10;;
18274;SDS011;19470;49.322;7.218;2024-02-14T17:48:22;5.65;;;4.78;;